createdAt,value
2023-03-11T00:01:33.161Z,97598.60
2023-03-11T00:04:08.334Z,97593.00
2023-03-11T00:06:43.707Z,97594.80
2023-03-11T00:09:18.192Z,97589.60
2023-03-11T00:11:52.908Z,97590.00
2023-03-11T00:14:27.254Z,97592.60
2023-03-11T00:17:01.685Z,97589.60
2023-03-11T00:19:37.475Z,97589.40
2023-03-11T00:22:16.835Z,97596.60
2023-03-11T00:24:55.834Z,97588.20
2023-03-11T00:27:36.900Z,97583.20
2023-03-11T00:30:24.860Z,97582.40
2023-03-11T00:33:11.402Z,97583.60
2023-03-11T00:35:55.579Z,97585.00
2023-03-11T00:38:35.922Z,97588.80
2023-03-11T00:41:11.072Z,97590.00
2023-03-11T00:43:46.902Z,97589.40
2023-03-11T00:46:21.764Z,97585.60
2023-03-11T00:48:56.893Z,97587.20
2023-03-11T00:51:33.839Z,97576.20
2023-03-11T00:54:08.688Z,97572.60
2023-03-11T00:56:43.089Z,97574.20
2023-03-11T00:59:17.990Z,97564.20
2023-03-11T01:01:52.727Z,97570.00
2023-03-11T01:04:29.459Z,97563.20
2023-03-11T01:07:03.743Z,97570.80
2023-03-11T01:09:38.324Z,97570.80
2023-03-11T01:12:12.630Z,97576.60
2023-03-11T01:14:47.130Z,97580.00
2023-03-11T01:17:22.782Z,97587.40
2023-03-11T01:19:57.021Z,97596.60
2023-03-11T01:22:31.333Z,97611.80
2023-03-11T01:25:06.142Z,97611.60
2023-03-11T01:27:40.437Z,97617.00
2023-03-11T01:30:20.983Z,97617.80
2023-03-11T01:32:57.418Z,97613.80
2023-03-11T01:35:34.255Z,97619.60
2023-03-11T01:38:08.457Z,97616.80
2023-03-11T01:40:44.763Z,97619.20
2023-03-11T01:43:54.690Z,97621.80
2023-03-11T01:46:37.875Z,97619.60
2023-03-11T01:49:17.287Z,97628.40
2023-03-11T01:51:56.023Z,97633.20
2023-03-11T01:54:35.395Z,97635.20
2023-03-11T01:57:16.413Z,97627.60
2023-03-11T01:59:57.208Z,97627.60
2023-03-11T02:02:38.324Z,97620.20
2023-03-11T02:05:13.384Z,97624.60
2023-03-11T02:07:48.053Z,97627.60
2023-03-11T02:10:24.139Z,97625.80
2023-03-11T02:12:58.475Z,97626.00
2023-03-11T02:15:35.244Z,97622.40
2023-03-11T02:18:14.705Z,97627.00
2023-03-11T02:20:58.808Z,97622.00
2023-03-11T02:23:43.825Z,97631.00
2023-03-11T02:26:26.215Z,97633.60
2023-03-11T02:29:05.411Z,97639.40
2023-03-11T02:31:43.315Z,97634.40
2023-03-11T02:34:27.705Z,97635.20
2023-03-11T02:37:02.688Z,97634.40
2023-03-11T02:39:39.740Z,97639.40
2023-03-11T02:42:19.885Z,97642.00
2023-03-11T02:45:02.508Z,97633.60
2023-03-11T02:47:39.383Z,97643.00
2023-03-11T02:50:18.914Z,97639.40
2023-03-11T02:52:54.592Z,97639.40
2023-03-11T02:55:29.940Z,97639.80
2023-03-11T02:58:04.647Z,97630.40
2023-03-11T03:00:39.290Z,97629.40
2023-03-11T03:03:14.521Z,97632.20
2023-03-11T03:05:49.317Z,97631.60
2023-03-11T03:08:23.602Z,97634.80
2023-03-11T03:11:00.184Z,97637.80
2023-03-11T03:13:34.519Z,97636.20
2023-03-11T03:16:09.445Z,97650.20
2023-03-11T03:18:44.062Z,97670.20
2023-03-11T03:21:18.592Z,97686.00
2023-03-11T03:23:53.288Z,97698.00
2023-03-11T03:26:27.558Z,97704.20
2023-03-11T03:29:01.717Z,97716.00
2023-03-11T03:31:36.068Z,97730.80
2023-03-11T03:34:11.329Z,97741.00
2023-03-11T03:36:45.666Z,97739.00
2023-03-11T03:39:20.286Z,97738.00
2023-03-11T03:41:55.939Z,97742.00
2023-03-11T03:44:31.055Z,97749.20
2023-03-11T03:47:07.716Z,97753.20
2023-03-11T03:49:42.383Z,97764.20
2023-03-11T03:52:16.785Z,97771.20
2023-03-11T03:54:51.133Z,97765.60
2023-03-11T03:57:25.597Z,97777.60
2023-03-11T04:00:00.035Z,97783.00
2023-03-11T04:02:35.992Z,97784.00
2023-03-11T04:05:12.261Z,97787.60
2023-03-11T04:07:47.027Z,97793.40
2023-03-11T04:10:21.968Z,97796.80
2023-03-11T04:12:56.938Z,97800.80
2023-03-11T04:15:32.116Z,97807.20
2023-03-11T04:18:06.567Z,97810.60
2023-03-11T04:20:43.840Z,97819.20
2023-03-11T04:23:18.402Z,97821.00
2023-03-11T04:25:52.645Z,97819.20
2023-03-11T04:28:27.575Z,97827.00
2023-03-11T04:31:02.340Z,97825.60
2023-03-11T04:33:38.334Z,97831.60
2023-03-11T04:36:14.640Z,97828.80
2023-03-11T04:38:49.040Z,97838.80
2023-03-11T04:41:24.196Z,97843.60
2023-03-11T04:43:59.950Z,97839.40
2023-03-11T04:46:34.187Z,97844.20
2023-03-11T04:49:10.024Z,97851.80
2023-03-11T04:51:45.332Z,97847.80
2023-03-11T04:54:20.588Z,97851.40
2023-03-11T04:56:54.849Z,97858.80
2023-03-11T04:59:29.726Z,97859.00
2023-03-11T05:02:04.622Z,97865.60
2023-03-11T05:04:39.438Z,97866.60
2023-03-11T05:07:13.897Z,97873.80
2023-03-11T05:09:48.247Z,97879.00
2023-03-11T05:12:22.778Z,97889.40
2023-03-11T05:14:58.933Z,97885.20
2023-03-11T05:17:33.179Z,97896.40
2023-03-11T05:20:09.464Z,97897.20
2023-03-11T05:22:43.989Z,97899.80
2023-03-11T05:25:18.727Z,97900.40
2023-03-11T05:27:53.557Z,97910.40
2023-03-11T05:30:28.259Z,97911.40
2023-03-11T05:33:04.423Z,97908.80
2023-03-11T05:35:39.193Z,97914.00
2023-03-11T05:38:13.882Z,97924.00
2023-03-11T05:40:48.466Z,97926.00
2023-03-11T05:43:23.057Z,97928.60
2023-03-11T05:46:00.989Z,97929.40
2023-03-11T05:48:36.437Z,97937.40
2023-03-11T05:51:15.039Z,97938.00
2023-03-11T05:53:51.929Z,97951.00
2023-03-11T05:56:32.617Z,97946.00
2023-03-11T05:59:07.367Z,97951.60
2023-03-11T06:01:43.217Z,97951.40
2023-03-11T06:04:18.106Z,97958.00
2023-03-11T06:06:53.035Z,97964.80
2023-03-11T06:09:28.402Z,97965.80
2023-03-11T06:12:04.686Z,97977.00
2023-03-11T06:14:48.587Z,97979.20
2023-03-11T06:17:43.552Z,97984.60
2023-03-11T06:20:26.025Z,97987.40
2023-03-11T06:23:03.490Z,97992.80
2023-03-11T06:25:46.563Z,98002.00
2023-03-11T06:28:33.548Z,98003.00
2023-03-11T06:31:22.898Z,98014.40
2023-03-11T06:34:06.391Z,98023.60
2023-03-11T06:36:44.288Z,98029.20
2023-03-11T06:39:30.977Z,98034.60
2023-03-11T06:42:14.134Z,98036.60
2023-03-11T06:44:50.072Z,98044.00
2023-03-11T06:47:24.564Z,98058.80
2023-03-11T06:49:59.041Z,98060.80
2023-03-11T06:52:34.191Z,98072.40
2023-03-11T06:55:10.201Z,98068.80
2023-03-11T06:57:45.938Z,98079.00
2023-03-11T07:00:21.896Z,98088.00
2023-03-11T07:02:59.935Z,98092.60
2023-03-11T07:05:35.087Z,98094.80
2023-03-11T07:08:15.236Z,98107.40
2023-03-11T07:11:07.374Z,98114.80
2023-03-11T07:13:42.208Z,98125.00
2023-03-11T07:16:19.984Z,98126.40
2023-03-11T07:18:56.729Z,98138.80
2023-03-11T07:21:32.954Z,98138.00
2023-03-11T07:24:08.805Z,98134.40
2023-03-11T07:26:44.619Z,98146.80
2023-03-11T07:29:20.987Z,98148.40
2023-03-11T07:31:55.515Z,98155.20
2023-03-11T07:34:29.796Z,98169.40
2023-03-11T07:37:05.160Z,98174.00
2023-03-11T07:39:40.480Z,98183.00
2023-03-11T07:42:15.021Z,98197.40
2023-03-11T07:44:51.582Z,98200.60
2023-03-11T07:47:25.965Z,98207.60
2023-03-11T07:50:02.544Z,98221.80
2023-03-11T07:52:37.376Z,98220.40
2023-03-11T07:55:12.789Z,98242.00
2023-03-11T07:57:47.887Z,98248.00
2023-03-11T08:00:24.451Z,98255.40
2023-03-11T08:02:59.070Z,98265.60
2023-03-11T08:05:36.464Z,98270.00
2023-03-11T08:08:10.747Z,98278.00
2023-03-11T08:10:45.256Z,98293.00
2023-03-11T08:13:19.787Z,98295.60
2023-03-11T08:15:53.972Z,98304.80
2023-03-11T08:18:28.230Z,98324.40
2023-03-11T08:21:07.711Z,98324.00
2023-03-11T08:23:43.549Z,98340.80
2023-03-11T08:26:21.689Z,98345.80
2023-03-11T08:28:56.122Z,98357.80
2023-03-11T08:31:33.299Z,98369.60
2023-03-11T08:34:12.026Z,98375.60
2023-03-11T08:36:46.648Z,98388.60
2023-03-11T08:39:21.443Z,98402.00
2023-03-11T08:41:55.999Z,98395.00
2023-03-11T08:44:30.551Z,98411.80
2023-03-11T08:47:05.276Z,98425.00
2023-03-11T08:49:40.334Z,98441.40
2023-03-11T08:52:16.076Z,98453.80
2023-03-11T08:54:51.255Z,98457.00
2023-03-11T08:57:25.915Z,98473.80
2023-03-11T09:00:00.265Z,98481.40
2023-03-11T09:02:35.188Z,98487.20
2023-03-11T09:05:12.072Z,98497.80
2023-03-11T09:07:46.740Z,98493.80
2023-03-11T09:10:21.606Z,98503.20
2023-03-11T09:12:56.140Z,98522.00
2023-03-11T09:15:30.780Z,98513.80
2023-03-11T09:18:05.448Z,98536.40
2023-03-11T09:20:43.020Z,98534.80
2023-03-11T09:23:20.969Z,98547.80
2023-03-11T09:25:55.604Z,98558.00
2023-03-11T09:28:30.102Z,98563.20
2023-03-11T09:31:07.724Z,98576.60
2023-03-11T09:33:47.043Z,98585.00
2023-03-11T09:36:23.285Z,98583.80
2023-03-11T09:38:57.476Z,98595.60
2023-03-11T09:41:57.982Z,98612.60
2023-03-11T09:44:42.893Z,98610.60
2023-03-11T09:47:48.743Z,98614.80
2023-03-11T09:50:36.763Z,98626.60
2023-03-11T09:53:37.746Z,98636.40
2023-03-11T09:56:17.087Z,98639.80
2023-03-11T09:58:54.104Z,98654.00
2023-03-11T10:01:33.750Z,98647.00
2023-03-11T10:04:17.426Z,98665.80
2023-03-11T10:06:53.120Z,98674.80
2023-03-11T10:09:40.471Z,98679.20
2023-03-11T10:12:41.413Z,98682.00
2023-03-11T10:15:33.053Z,98685.20
2023-03-11T10:18:48.855Z,98690.60
2023-03-11T10:21:45.516Z,98705.60
2023-03-11T10:24:45.809Z,98710.40
2023-03-11T10:27:27.492Z,98720.00
2023-03-11T10:30:11.445Z,98724.00
2023-03-11T10:32:51.230Z,98727.80
2023-03-11T10:35:30.833Z,98739.80
2023-03-11T10:38:14.484Z,98744.60
2023-03-11T10:40:52.111Z,98752.40
2023-03-11T10:43:34.823Z,98749.80
2023-03-11T10:46:28.221Z,98756.20
2023-03-11T10:49:02.610Z,98759.60
2023-03-11T10:51:39.946Z,98777.60
2023-03-11T10:54:29.541Z,98768.80
2023-03-11T10:57:07.712Z,98790.20
2023-03-11T10:59:52.300Z,98798.80
2023-03-11T11:02:33.607Z,98802.80
2023-03-11T11:05:29.897Z,98801.60
2023-03-11T11:08:16.115Z,98797.00
2023-03-11T11:10:59.302Z,98809.60
2023-03-11T11:13:35.623Z,98819.40
2023-03-11T11:16:21.544Z,98811.60
2023-03-11T11:19:05.290Z,98817.20
2023-03-11T11:21:48.835Z,98817.80
2023-03-11T11:24:29.046Z,98835.60
2023-03-11T11:27:21.172Z,98828.20
2023-03-11T11:30:19.077Z,98842.00
2023-03-11T11:32:55.767Z,98821.00
2023-03-11T11:35:30.160Z,98841.20
2023-03-11T11:38:15.446Z,98837.20
2023-03-11T11:40:50.784Z,98846.40
2023-03-11T11:43:48.029Z,98850.20
2023-03-11T11:46:36.711Z,98868.20
2023-03-11T11:49:23.299Z,98859.80
2023-03-11T11:52:05.450Z,98873.60
2023-03-11T11:54:50.718Z,98875.00
2023-03-11T11:57:27.052Z,98876.60
2023-03-11T12:00:03.165Z,98887.60
2023-03-11T12:03:02.502Z,98894.40
2023-03-11T12:05:53.011Z,98896.60
2023-03-11T12:08:40.262Z,98902.40
2023-03-11T12:11:26.113Z,98924.20
2023-03-11T12:14:12.427Z,98906.60
2023-03-11T12:16:58.037Z,98935.00
2023-03-11T12:19:50.333Z,98937.20
2023-03-11T12:22:53.754Z,98949.80
2023-03-11T12:25:38.046Z,98958.20
2023-03-11T12:28:25.124Z,98947.60
2023-03-11T12:31:04.605Z,98967.00
2023-03-11T12:33:44.259Z,98970.80
2023-03-11T12:36:35.180Z,98976.60
2023-03-11T12:39:23.701Z,98960.00
2023-03-11T12:42:23.049Z,98965.40
2023-03-11T12:45:17.187Z,98959.00
2023-03-11T12:48:33.072Z,98954.20
2023-03-11T12:51:07.475Z,98966.80
2023-03-11T12:53:50.766Z,98979.60
2023-03-11T12:56:37.992Z,98978.80
2023-03-11T12:59:53.418Z,99002.00
2023-03-11T13:02:54.265Z,98990.00
2023-03-11T13:05:43.405Z,99006.40
2023-03-11T13:08:21.804Z,99009.80
2023-03-11T13:10:57.726Z,99021.20
2023-03-11T13:13:43.339Z,99035.60
2023-03-11T13:16:42.561Z,99047.20
2023-03-11T13:19:55.942Z,99063.20
2023-03-11T13:23:25.408Z,99071.00
2023-03-11T13:26:31.585Z,99077.20
2023-03-11T13:29:45.392Z,99085.40
2023-03-11T13:32:53.046Z,99088.40
2023-03-11T13:35:46.116Z,99083.20
2023-03-11T13:38:57.444Z,99084.00
2023-03-11T13:41:39.580Z,99112.40
2023-03-11T13:44:34.865Z,99115.40
2023-03-11T13:47:15.696Z,99123.80
2023-03-11T13:49:56.767Z,99139.40
2023-03-11T13:52:36.370Z,99142.00
2023-03-11T13:55:21.182Z,99142.80
2023-03-11T13:57:58.314Z,99153.00
2023-03-11T14:00:34.122Z,99148.60
2023-03-11T14:03:15.257Z,99156.40
2023-03-11T14:05:52.682Z,99162.20
2023-03-11T14:08:31.793Z,99179.00
2023-03-11T14:11:16.847Z,99187.20
2023-03-11T14:13:54.183Z,99188.20
2023-03-11T14:16:36.249Z,99183.00
2023-03-11T14:19:18.482Z,99197.40
2023-03-11T14:21:55.502Z,99202.60
2023-03-11T14:24:32.795Z,99211.60
2023-03-11T14:27:11.296Z,99212.00
2023-03-11T14:29:48.287Z,99223.60
2023-03-11T14:32:32.346Z,99230.60
2023-03-11T14:35:22.481Z,99237.00
2023-03-11T14:37:57.177Z,99247.40
2023-03-11T14:40:35.315Z,99252.20
2023-03-11T14:43:13.173Z,99247.00
2023-03-11T14:45:48.537Z,99228.00
2023-03-11T14:48:28.987Z,99247.80
2023-03-11T14:51:07.418Z,99250.40
2023-03-11T14:53:47.983Z,99249.40
2023-03-11T14:56:25.983Z,99263.00
2023-03-11T14:59:12.661Z,99262.20
2023-03-11T15:01:49.573Z,99259.20
2023-03-11T15:04:33.888Z,99268.20
2023-03-11T15:07:09.171Z,99265.80
2023-03-11T15:09:45.896Z,99264.80
2023-03-11T15:12:38.848Z,99278.20
2023-03-11T15:15:29.244Z,99281.40
2023-03-11T15:18:05.694Z,99282.00
2023-03-11T15:20:41.095Z,99283.60
2023-03-11T15:23:25.749Z,99292.80
2023-03-11T15:26:00.444Z,99298.20
2023-03-11T15:28:37.437Z,99301.80
2023-03-11T15:31:31.692Z,99309.00
2023-03-11T15:34:32.162Z,99311.40
2023-03-11T15:37:26.786Z,99321.40
2023-03-11T15:40:27.947Z,99321.60
2023-03-11T15:43:28.183Z,99326.80
2023-03-11T15:46:05.171Z,99328.20
2023-03-11T15:48:39.568Z,99330.20
2023-03-11T15:51:24.258Z,99332.00
2023-03-11T15:53:58.552Z,99335.80
2023-03-11T15:56:33.495Z,99339.80
2023-03-11T15:59:07.861Z,99349.60
2023-03-11T16:01:42.128Z,99360.80
2023-03-11T16:04:22.253Z,99367.00
2023-03-11T16:07:07.387Z,99370.80
2023-03-11T16:09:42.899Z,99372.80
2023-03-11T16:12:23.304Z,99379.20
2023-03-11T16:14:57.566Z,99382.40
2023-03-11T16:17:48.529Z,99391.60
2023-03-11T16:20:26.373Z,99401.20
2023-03-11T16:23:02.612Z,99405.40
2023-03-11T16:25:41.788Z,99411.40
2023-03-11T16:28:18.472Z,99420.80
2023-03-11T16:30:54.423Z,99420.80
2023-03-11T16:33:28.727Z,99424.20
2023-03-11T16:36:04.041Z,99429.40
2023-03-11T16:38:49.651Z,99437.00
2023-03-11T16:41:27.995Z,99441.80
2023-03-11T16:44:02.416Z,99448.40
2023-03-11T16:46:36.746Z,99446.80
2023-03-11T16:49:11.264Z,99459.60
2023-03-11T16:51:45.571Z,99465.40
2023-03-11T16:54:20.042Z,99469.20
2023-03-11T16:56:54.493Z,99474.60
2023-03-11T16:59:29.100Z,99485.40
2023-03-11T17:02:03.432Z,99488.40
2023-03-11T17:04:38.557Z,99488.60
2023-03-11T17:07:13.507Z,99498.60
2023-03-11T17:09:47.868Z,99495.40
2023-03-11T17:12:23.217Z,99503.60
2023-03-11T17:14:58.002Z,99512.00
2023-03-11T17:17:32.445Z,99507.40
2023-03-11T17:20:09.124Z,99511.80
2023-03-11T17:22:43.555Z,99522.40
2023-03-11T17:25:18.130Z,99530.20
2023-03-11T17:27:54.384Z,99532.20
2023-03-11T17:30:36.785Z,99539.00
2023-03-11T17:33:11.605Z,99541.80
2023-03-11T17:35:46.375Z,99549.80
2023-03-11T17:38:20.980Z,99548.40
2023-03-11T17:40:55.342Z,99554.20
2023-03-11T17:43:29.763Z,99556.00
2023-03-11T17:46:07.388Z,99560.40
2023-03-11T17:48:41.826Z,99558.00
2023-03-11T17:51:19.238Z,99570.20
2023-03-11T17:53:54.802Z,99571.80
2023-03-11T17:56:29.481Z,99573.60
2023-03-11T17:59:03.849Z,99584.60
2023-03-11T18:01:38.385Z,99585.00
2023-03-11T18:04:12.757Z,99586.80
2023-03-11T18:06:47.236Z,99592.80
2023-03-11T18:09:21.873Z,99591.40
2023-03-11T18:11:56.200Z,99597.60
2023-03-11T18:14:30.680Z,99606.40
2023-03-11T18:17:05.092Z,99600.80
2023-03-11T18:19:40.294Z,99602.80
2023-03-11T18:22:15.639Z,99614.20
2023-03-11T18:24:49.870Z,99624.80
2023-03-11T18:27:24.718Z,99627.60
2023-03-11T18:30:00.430Z,99638.00
2023-03-11T18:32:35.123Z,99643.20
2023-03-11T18:35:11.517Z,99646.20
2023-03-11T18:37:46.863Z,99647.80
2023-03-11T18:40:21.869Z,99651.40
2023-03-11T18:42:58.562Z,99659.40
2023-03-11T18:45:32.980Z,99664.40
2023-03-11T18:48:07.769Z,99669.20
2023-03-11T18:50:42.321Z,99669.80
2023-03-11T18:53:16.947Z,99674.20
2023-03-11T18:55:51.542Z,99680.40
2023-03-11T18:58:25.948Z,99683.60
2023-03-11T19:01:07.364Z,99688.60
2023-03-11T19:03:41.680Z,99687.80
2023-03-11T19:06:17.939Z,99693.40
2023-03-11T19:08:52.531Z,99698.00
2023-03-11T19:11:27.833Z,99696.00
2023-03-11T19:14:02.347Z,99699.40
2023-03-11T19:16:36.636Z,99698.40
2023-03-11T19:19:12.031Z,99702.40
2023-03-11T19:21:47.892Z,99718.60
2023-03-11T19:24:22.355Z,99715.40
2023-03-11T19:26:56.688Z,99718.80
2023-03-11T19:29:30.973Z,99717.20
2023-03-11T19:32:05.573Z,99728.00
2023-03-11T19:34:40.442Z,99733.40
2023-03-11T19:37:17.223Z,99744.00
2023-03-11T19:39:51.707Z,99743.80
2023-03-11T19:42:26.013Z,99740.20
2023-03-11T19:45:00.451Z,99746.20
2023-03-11T19:47:35.040Z,99753.60
2023-03-11T19:50:11.938Z,99755.40
2023-03-11T19:52:46.441Z,99759.00
2023-03-11T19:55:21.216Z,99766.60
2023-03-11T19:57:55.889Z,99763.40
2023-03-11T20:00:30.664Z,99764.80
2023-03-11T20:03:05.183Z,99765.80
2023-03-11T20:05:42.418Z,99770.60
2023-03-11T20:08:20.096Z,99769.80
2023-03-11T20:11:01.799Z,99773.00
2023-03-11T20:13:37.001Z,99772.60
2023-03-11T20:16:18.364Z,99772.00
2023-03-11T20:18:55.226Z,99780.20
2023-03-11T20:23:49.990Z,99784.60
2023-03-11T20:26:25.108Z,99782.40
2023-03-11T20:29:01.406Z,99786.60
2023-03-11T20:31:38.058Z,99790.60
2023-03-11T20:34:16.499Z,99791.00
2023-03-11T20:36:52.532Z,99798.40
2023-03-11T20:39:28.292Z,99799.80
2023-03-11T20:42:06.254Z,99799.00
2023-03-11T20:44:41.223Z,99803.60
2023-03-11T20:47:15.673Z,99809.20
2023-03-11T20:49:52.167Z,99805.60
2023-03-11T20:52:27.270Z,99805.60
2023-03-11T20:55:01.567Z,99805.00
2023-03-11T20:57:36.061Z,99810.00
2023-03-11T21:00:15.768Z,99808.60
2023-03-11T21:02:50.300Z,99810.80
2023-03-11T21:05:25.212Z,99809.60
2023-03-11T21:07:59.482Z,99808.80
2023-03-11T21:10:36.219Z,99807.40
2023-03-11T21:13:11.293Z,99814.20
2023-03-11T21:15:46.209Z,99808.40
2023-03-11T21:18:20.875Z,99808.20
2023-03-11T21:20:55.480Z,99809.60
2023-03-11T21:23:29.971Z,99806.40
2023-03-11T21:26:06.743Z,99803.20
2023-03-11T21:28:46.419Z,99800.60
2023-03-11T21:31:27.823Z,99805.40
2023-03-11T21:34:03.971Z,99802.40
2023-03-11T21:36:38.726Z,99802.20
2023-03-11T21:39:14.700Z,99801.80
2023-03-11T21:41:49.005Z,99802.20
2023-03-11T21:44:23.872Z,99799.40
2023-03-11T21:46:58.347Z,99797.40
2023-03-11T21:49:32.903Z,99802.40
2023-03-11T21:52:10.985Z,99796.60
2023-03-11T21:54:45.382Z,99796.20
2023-03-11T21:57:19.730Z,99798.00
2023-03-11T21:59:58.153Z,99801.40
2023-03-11T22:02:40.421Z,99805.00
2023-03-11T22:05:29.647Z,99804.60
2023-03-11T22:08:05.056Z,99811.00
2023-03-11T22:10:40.182Z,99804.40
2023-03-11T22:13:14.555Z,99812.60
2023-03-11T22:15:49.122Z,99812.60
2023-03-11T22:18:23.483Z,99805.00
2023-03-11T22:21:00.948Z,99812.80
2023-03-11T22:23:36.230Z,99816.20
2023-03-11T22:26:10.777Z,99814.40
2023-03-11T22:28:45.188Z,99820.60
2023-03-11T22:31:20.411Z,99815.60
2023-03-11T22:33:55.479Z,99822.80
2023-03-11T22:36:30.175Z,99827.80
2023-03-11T22:39:04.675Z,99824.40
2023-03-11T22:41:39.234Z,99827.40
2023-03-11T22:44:13.847Z,99826.80
2023-03-11T22:46:48.336Z,99830.80
2023-03-11T22:49:23.117Z,99833.60
2023-03-11T22:51:57.420Z,99833.60
2023-03-11T22:54:31.946Z,99830.20
2023-03-11T22:58:08.975Z,99839.40
2023-03-11T23:00:44.751Z,99835.20
2023-03-11T23:03:19.231Z,99842.20
2023-03-11T23:05:53.464Z,99848.40
2023-03-11T23:08:28.056Z,99847.40
2023-03-11T23:11:08.495Z,99849.60
2023-03-11T23:13:44.661Z,99852.00
2023-03-11T23:16:21.645Z,99852.40
2023-03-11T23:18:59.072Z,99856.00
2023-03-11T23:21:35.860Z,99856.40
2023-03-11T23:24:12.297Z,99860.80
2023-03-11T23:26:46.663Z,99863.20
2023-03-11T23:29:21.608Z,99866.80
2023-03-11T23:31:55.796Z,99866.80
2023-03-11T23:34:30.683Z,99866.60
2023-03-11T23:37:05.597Z,99871.60
2023-03-11T23:39:40.029Z,99871.80
2023-03-11T23:42:25.036Z,99871.40
2023-03-11T23:45:00.052Z,99874.40
2023-03-11T23:47:34.179Z,99870.40
2023-03-11T23:50:10.255Z,99873.80
2023-03-11T23:52:44.724Z,99874.80
2023-03-11T23:55:19.378Z,99879.20
2023-03-11T23:57:53.457Z,99879.80
